Terminal Aerodrome Forecast
Issued by NWS Twin Cities, MN

Home | Current Version | Previous Version | Graphics & Text | Print | Product List | Glossary On
Versions: 1 2 3 4 5 6 7 8 9 10 11 12 13 14
000
FTUS43 KMPX 151100 RRA
TAFSTC
TAF
KSTC 151142Z 1512/1612 32005KT P6SM SKC
     FM152000 24006KT P6SM BKN150
     FM160000 15007KT P6SM OVC090
     FM160600 11010KT P6SM VCSH SCT030 OVC060
     FM161000 10013KT 4SM -SN OVC030=

USA.gov is the U.S. government's official web portal to all federal, state and local government web resources and services.